Ewaterfrd, Pennsylvania
Current Conditions -  °F | °C
As of 2:53 PM on Friday 24 Oct 2014 (Local Time) from KAOO Reporting Station
Clear Clear  
Wind Chill: 14°   Ceiling: Unl
Heat Index: 14°   Visibility: 10mi
Dew Point:   Wind: 14mph
Humidity: 47%   Direction: 300°WNW
Pressure: 29.95"   Gusts: NA
Location:  40.3617°N, 77.6745°W
Report Text: KAOO 241853Z AUTO 30012KT 10SM CLR 14/03 A2995 RMK AO2 SLP145 T01440033
Loading
Personal Weather Stations






























Interactive Weather Map
Tropical Storm Tracking
New forecast layout! Learn more

10-Day Weather Forecast

Advertisements
Track Severe Weather on mobile